createdAt,value
2019-03-22T00:02:14.277Z,84.30
2019-03-22T00:04:41.115Z,84.90
2019-03-22T00:07:08.650Z,85.20
2019-03-22T00:09:35.484Z,86.00
2019-03-22T00:12:04.292Z,85.60
2019-03-22T00:14:30.965Z,85.50
2019-03-22T00:16:57.800Z,85.50
2019-03-22T00:19:24.588Z,85.60
2019-03-22T00:21:51.421Z,85.60
2019-03-22T00:24:18.249Z,85.70
2019-03-22T00:26:45.089Z,85.90
2019-03-22T00:29:11.877Z,85.70
2019-03-22T00:31:38.709Z,85.40
2019-03-22T00:34:05.537Z,85.30
2019-03-22T00:36:32.370Z,85.20
2019-03-22T00:38:59.151Z,85.00
2019-03-22T00:41:25.980Z,85.00
2019-03-22T00:43:52.764Z,85.20
2019-03-22T00:46:19.604Z,85.90
2019-03-22T00:48:46.384Z,86.00
2019-03-22T00:51:13.219Z,85.60
2019-03-22T00:53:40.011Z,85.60
2019-03-22T00:56:06.788Z,85.80
2019-03-22T00:58:33.625Z,85.80
2019-03-22T01:01:00.405Z,85.40
2019-03-22T01:03:27.246Z,85.40
2019-03-22T01:05:54.080Z,85.30
2019-03-22T01:08:20.856Z,85.30
2019-03-22T01:10:47.680Z,85.10
2019-03-22T01:13:14.561Z,84.90
2019-03-22T01:15:41.342Z,85.00
2019-03-22T01:18:09.177Z,85.00
2019-03-22T01:20:36.019Z,85.50
2019-03-22T01:23:02.848Z,85.60
2019-03-22T01:25:29.772Z,85.30
2019-03-22T01:27:56.557Z,85.10
2019-03-22T01:30:23.345Z,84.90
2019-03-22T01:32:50.172Z,84.90
2019-03-22T01:35:16.996Z,84.60
2019-03-22T01:37:43.780Z,85.00
2019-03-22T01:40:11.726Z,84.50
2019-03-22T01:42:38.712Z,84.40
2019-03-22T01:45:09.940Z,84.60
2019-03-22T01:47:36.785Z,84.60
2019-03-22T01:50:09.597Z,84.70
2019-03-22T01:52:37.187Z,84.90
2019-03-22T01:55:04.021Z,85.00
2019-03-22T01:57:30.844Z,84.60
2019-03-22T01:59:57.681Z,84.70
2019-03-22T02:02:24.520Z,85.00
2019-03-22T02:04:52.100Z,85.20
2019-03-22T02:07:18.920Z,85.30
2019-03-22T02:09:45.752Z,85.00
2019-03-22T02:12:12.572Z,85.10
2019-03-22T02:14:39.408Z,85.00
2019-03-22T02:17:06.261Z,85.40
2019-03-22T02:19:33.082Z,85.60
2019-03-22T02:21:59.909Z,85.80
2019-03-22T02:24:26.696Z,86.00
2019-03-22T02:26:53.524Z,86.20
2019-03-22T02:29:20.321Z,86.40
2019-03-22T02:31:47.137Z,86.40
2019-03-22T02:34:13.969Z,86.40
2019-03-22T02:36:40.802Z,86.50
2019-03-22T02:39:07.632Z,86.90
2019-03-22T02:41:34.434Z,86.70
2019-03-22T02:44:01.260Z,86.70
2019-03-22T02:46:28.042Z,87.20
2019-03-22T02:48:54.826Z,87.30
2019-03-22T02:51:21.657Z,87.20
2019-03-22T02:53:48.437Z,87.30
2019-03-22T02:56:15.445Z,87.30
2019-03-22T02:58:42.425Z,87.10
2019-03-22T03:01:09.212Z,87.10
2019-03-22T03:03:36.054Z,86.80
2019-03-22T03:06:02.889Z,87.40
2019-03-22T03:08:29.674Z,87.50
2019-03-22T03:10:56.506Z,87.40
2019-03-22T03:13:23.394Z,87.40
2019-03-22T03:15:50.273Z,87.20
2019-03-22T03:18:17.061Z,87.00
2019-03-22T03:20:43.888Z,86.60
2019-03-22T03:23:10.726Z,86.80
2019-03-22T03:25:37.569Z,86.60
2019-03-22T03:28:04.357Z,86.40
2019-03-22T03:30:32.006Z,86.60
2019-03-22T03:32:58.800Z,87.10
2019-03-22T03:35:25.628Z,87.80
2019-03-22T03:37:52.401Z,88.60
2019-03-22T03:40:19.225Z,89.00
2019-03-22T03:42:46.077Z,89.80
2019-03-22T03:45:33.057Z,90.30
2019-03-22T03:48:00.980Z,90.30
2019-03-22T03:50:28.505Z,89.90
2019-03-22T03:52:55.277Z,90.30
2019-03-22T03:55:22.119Z,90.90
2019-03-22T03:57:48.905Z,91.00
2019-03-22T04:00:15.850Z,90.80
2019-03-22T04:02:42.624Z,90.50
2019-03-22T04:05:09.424Z,90.70
2019-03-22T04:07:36.240Z,90.90
2019-03-22T04:10:05.135Z,90.70
2019-03-22T04:12:31.961Z,89.70
2019-03-22T04:14:58.852Z,89.50
2019-03-22T04:17:25.634Z,89.30
2019-03-22T04:19:52.478Z,89.40
2019-03-22T04:22:19.307Z,90.00
2019-03-22T04:24:46.141Z,90.70
2019-03-22T04:27:12.912Z,91.40
2019-03-22T04:29:39.743Z,91.40
2019-03-22T04:32:06.596Z,91.70
2019-03-22T04:34:33.428Z,91.30
2019-03-22T04:37:00.213Z,91.30
2019-03-22T04:39:27.043Z,91.40
2019-03-22T04:41:53.827Z,91.00
2019-03-22T04:44:20.662Z,90.50
2019-03-22T04:46:47.440Z,90.40
2019-03-22T04:49:15.749Z,89.80
2019-03-22T04:51:42.877Z,89.70
2019-03-22T04:54:10.370Z,89.80
2019-03-22T04:56:38.300Z,90.30
2019-03-22T04:59:18.461Z,90.30
2019-03-22T05:01:38.797Z,90.20
2019-03-22T05:04:07.881Z,90.20
2019-03-22T05:06:35.925Z,90.60
2019-03-22T05:09:06.315Z,90.60
2019-03-22T05:11:33.401Z,91.00
2019-03-22T05:14:02.596Z,91.70
2019-03-22T05:16:30.576Z,92.10
2019-03-22T05:19:00.618Z,92.50
2019-03-22T05:21:27.536Z,92.60
2019-03-22T05:23:56.968Z,92.80
2019-03-22T05:26:26.659Z,92.80
2019-03-22T05:28:53.588Z,92.30
2019-03-22T05:31:33.286Z,91.70
2019-03-22T05:34:00.148Z,91.60
2019-03-22T05:36:26.985Z,91.60
2019-03-22T05:38:53.872Z,91.00
2019-03-22T05:41:20.661Z,90.40
2019-03-22T05:43:47.489Z,89.90
2019-03-22T05:46:14.287Z,88.80
2019-03-22T05:48:41.122Z,87.90
2019-03-22T05:51:07.957Z,87.50
2019-03-22T05:53:34.751Z,87.50
2019-03-22T05:56:01.586Z,87.30
2019-03-22T05:58:28.391Z,86.90
2019-03-22T06:00:55.238Z,86.30
2019-03-22T06:03:22.019Z,86.10
2019-03-22T06:05:48.852Z,85.90
2019-03-22T06:08:15.634Z,85.50
2019-03-22T06:10:42.481Z,85.60
2019-03-22T06:13:09.413Z,84.90
2019-03-22T06:15:36.249Z,85.10
2019-03-22T06:18:03.029Z,85.50
2019-03-22T06:20:29.856Z,84.40
2019-03-22T06:22:56.644Z,83.40
2019-03-22T06:25:23.480Z,83.00
2019-03-22T06:27:50.453Z,82.90
2019-03-22T06:30:17.288Z,83.30
2019-03-22T06:32:44.076Z,82.70
2019-03-22T06:35:10.941Z,82.40
2019-03-22T06:37:37.711Z,81.00
2019-03-22T06:40:06.092Z,79.70
2019-03-22T06:42:32.938Z,79.00
2019-03-22T06:44:59.772Z,78.90
2019-03-22T06:47:27.052Z,78.20
2019-03-22T06:49:53.882Z,78.20
2019-03-22T06:52:20.664Z,78.40
2019-03-22T06:54:47.505Z,78.60
2019-03-22T06:57:14.286Z,79.00
2019-03-22T06:59:41.122Z,78.80
2019-03-22T07:02:07.900Z,77.90
2019-03-22T07:04:34.732Z,77.50
2019-03-22T07:07:01.512Z,77.00
2019-03-22T07:09:28.347Z,76.80
2019-03-22T07:11:55.119Z,76.50
2019-03-22T07:14:21.998Z,76.30
2019-03-22T07:16:48.779Z,75.90
2019-03-22T07:19:15.617Z,75.20
2019-03-22T07:21:42.694Z,74.50
2019-03-22T07:24:09.521Z,74.20
2019-03-22T07:26:37.407Z,74.80
2019-03-22T07:29:04.252Z,73.50
2019-03-22T07:31:31.024Z,73.90
2019-03-22T07:33:57.868Z,74.00
2019-03-22T07:36:24.701Z,72.70
2019-03-22T07:38:51.537Z,72.30
2019-03-22T07:41:19.117Z,72.00
2019-03-22T07:43:45.948Z,71.40
2019-03-22T07:46:12.833Z,72.80
2019-03-22T07:48:39.613Z,73.40
2019-03-22T07:51:06.502Z,73.60
2019-03-22T07:53:34.084Z,74.00
2019-03-22T07:56:00.861Z,73.70
2019-03-22T07:58:27.700Z,72.50
2019-03-22T08:00:54.529Z,72.80
2019-03-22T08:03:21.308Z,71.90
2019-03-22T08:05:51.511Z,71.10
2019-03-22T08:08:16.781Z,70.00
2019-03-22T08:10:43.620Z,71.10
2019-03-22T08:13:10.457Z,70.10
2019-03-22T08:15:37.298Z,70.90
2019-03-22T08:18:06.349Z,70.50
2019-03-22T08:20:33.664Z,70.50
2019-03-22T08:23:00.611Z,70.90
2019-03-22T08:25:27.434Z,69.30
2019-03-22T08:27:54.281Z,68.80
2019-03-22T08:30:21.125Z,67.60
2019-03-22T08:32:50.313Z,67.30
2019-03-22T08:35:16.556Z,67.50
2019-03-22T08:37:52.428Z,68.20
2019-03-22T08:40:12.289Z,68.10
2019-03-22T08:42:39.268Z,67.90
2019-03-22T08:45:11.391Z,67.70
2019-03-22T08:47:38.475Z,67.30
2019-03-22T08:50:05.588Z,68.40
2019-03-22T08:52:32.496Z,66.90
2019-03-22T08:54:59.616Z,66.70
2019-03-22T08:57:26.546Z,66.70
2019-03-22T08:59:53.405Z,66.30
2019-03-22T09:02:20.344Z,66.10
2019-03-22T09:04:47.230Z,66.80
2019-03-22T09:07:14.168Z,68.00
2019-03-22T09:09:41.961Z,68.40
2019-03-22T09:12:09.180Z,69.40
2019-03-22T09:14:36.042Z,68.00
2019-03-22T09:17:03.146Z,68.10
2019-03-22T09:19:29.990Z,67.30
2019-03-22T09:21:59.521Z,68.10
2019-03-22T09:24:38.278Z,68.20
2019-03-22T09:26:54.537Z,68.00
2019-03-22T09:29:21.485Z,68.00
2019-03-22T09:31:48.552Z,67.70
2019-03-22T09:34:15.444Z,67.80
2019-03-22T09:36:42.266Z,68.90
2019-03-22T09:39:09.119Z,68.90
2019-03-22T09:41:35.876Z,68.20
2019-03-22T09:44:03.079Z,68.40
2019-03-22T09:46:29.876Z,69.00
2019-03-22T09:48:56.778Z,69.30
2019-03-22T09:51:23.583Z,70.00
2019-03-22T09:53:51.072Z,69.20
2019-03-22T09:56:17.945Z,68.10
2019-03-22T09:58:44.785Z,66.80
2019-03-22T10:01:23.188Z,66.50
2019-03-22T10:03:42.522Z,65.70
2019-03-22T10:06:08.880Z,65.00
2019-03-22T10:08:35.772Z,64.90
2019-03-22T10:11:02.641Z,63.40
2019-03-22T10:13:29.383Z,66.10
2019-03-22T10:15:56.229Z,64.50
2019-03-22T10:18:23.020Z,64.70
2019-03-22T10:20:49.860Z,63.80
2019-03-22T10:23:16.628Z,64.10
2019-03-22T10:25:43.470Z,64.40
2019-03-22T10:28:10.344Z,65.40
2019-03-22T10:30:37.209Z,65.60
2019-03-22T10:33:04.044Z,64.30
2019-03-22T10:35:30.872Z,65.20
2019-03-22T10:38:00.960Z,65.30
2019-03-22T10:40:26.251Z,64.20
2019-03-22T10:42:53.067Z,65.70
2019-03-22T10:45:19.882Z,64.40
2019-03-22T10:47:46.695Z,63.20
2019-03-22T10:50:13.505Z,63.50
2019-03-22T10:52:40.323Z,64.20
2019-03-22T10:55:23.483Z,64.60
2019-03-22T10:57:35.920Z,66.90
2019-03-22T11:00:09.613Z,67.30
2019-03-22T11:02:36.558Z,66.50
2019-03-22T11:05:05.210Z,66.50
2019-03-22T11:07:32.038Z,66.30
2019-03-22T11:09:58.816Z,67.20
2019-03-22T11:12:25.657Z,67.00
2019-03-22T11:14:52.470Z,66.50
2019-03-22T11:17:19.401Z,66.90
2019-03-22T11:19:46.238Z,67.90
2019-03-22T11:22:13.021Z,65.10
2019-03-22T11:24:39.815Z,65.90
2019-03-22T11:27:06.716Z,65.60
2019-03-22T11:29:33.495Z,63.40
2019-03-22T11:32:00.340Z,64.90
2019-03-22T11:34:27.172Z,64.10
2019-03-22T11:36:54.052Z,63.00
2019-03-22T11:39:20.886Z,62.20
2019-03-22T11:41:47.681Z,60.70
2019-03-22T11:44:14.512Z,62.10
2019-03-22T11:46:41.292Z,62.10
2019-03-22T11:49:08.121Z,61.40
2019-03-22T11:51:35.061Z,60.30
2019-03-22T11:54:01.862Z,59.90
2019-03-22T11:56:28.699Z,60.10
2019-03-22T11:58:55.476Z,58.80
2019-03-22T12:01:22.751Z,59.40
2019-03-22T12:03:49.650Z,58.20
2019-03-22T12:06:16.429Z,57.60
2019-03-22T12:08:43.273Z,56.10
2019-03-22T12:11:10.052Z,56.40
2019-03-22T12:13:36.832Z,56.70
2019-03-22T12:16:03.826Z,56.80
2019-03-22T12:18:30.665Z,56.20
2019-03-22T12:20:57.456Z,55.10
2019-03-22T12:23:24.291Z,57.30
2019-03-22T12:25:51.073Z,56.00
2019-03-22T12:28:17.953Z,54.80
2019-03-22T12:30:44.800Z,56.20
2019-03-22T12:33:11.585Z,56.60
2019-03-22T12:35:39.069Z,56.50
2019-03-22T12:38:06.014Z,55.80
2019-03-22T12:40:32.844Z,56.00
2019-03-22T12:42:59.682Z,55.50
2019-03-22T12:45:31.192Z,56.70
2019-03-22T12:47:57.986Z,54.70
2019-03-22T12:50:24.775Z,54.40
2019-03-22T12:52:51.604Z,55.10
2019-03-22T12:55:18.568Z,54.50
2019-03-22T12:57:45.414Z,54.30
2019-03-22T13:00:20.699Z,55.40
2019-03-22T13:02:47.534Z,54.20
2019-03-22T13:05:14.918Z,55.20
2019-03-22T13:07:41.765Z,54.40
2019-03-22T13:10:11.753Z,54.40
2019-03-22T13:12:38.537Z,54.60
2019-03-22T13:15:06.714Z,54.60
2019-03-22T13:17:33.501Z,54.60
2019-03-22T13:20:00.359Z,55.80
2019-03-22T13:22:27.168Z,55.60
2019-03-22T13:24:53.944Z,54.80
2019-03-22T13:27:20.784Z,55.10
2019-03-22T13:29:47.604Z,55.00
2019-03-22T13:32:14.440Z,54.10
2019-03-22T13:34:41.230Z,54.50
2019-03-22T13:37:08.064Z,54.00
2019-03-22T13:39:34.853Z,53.80
2019-03-22T13:42:01.690Z,54.10
2019-03-22T13:44:28.477Z,54.70
2019-03-22T13:46:55.312Z,54.50
2019-03-22T13:49:22.110Z,53.90
2019-03-22T13:51:48.934Z,53.70
2019-03-22T13:54:15.760Z,54.20
2019-03-22T13:56:42.541Z,54.30
2019-03-22T13:59:09.384Z,54.30
2019-03-22T14:01:36.256Z,54.10
2019-03-22T14:04:03.091Z,54.30
2019-03-22T14:06:29.875Z,54.50
2019-03-22T14:08:56.717Z,55.70
2019-03-22T14:11:23.549Z,54.50
2019-03-22T14:13:50.480Z,54.80
2019-03-22T14:16:17.264Z,55.60
2019-03-22T14:18:44.117Z,55.90
2019-03-22T14:21:11.027Z,54.10
2019-03-22T14:23:37.796Z,54.20
2019-03-22T14:26:04.583Z,54.50
2019-03-22T14:28:31.425Z,54.70
2019-03-22T14:30:58.812Z,55.30
2019-03-22T14:33:25.657Z,54.10
2019-03-22T14:35:52.497Z,54.50
2019-03-22T14:38:19.293Z,55.70
2019-03-22T14:40:46.185Z,56.00
2019-03-22T14:43:12.969Z,55.20
2019-03-22T14:45:39.756Z,53.50
2019-03-22T14:48:06.594Z,53.80
2019-03-22T14:50:33.377Z,54.20
2019-03-22T14:53:00.227Z,54.40
2019-03-22T14:55:27.012Z,53.60
2019-03-22T14:57:53.856Z,53.00
2019-03-22T15:00:20.648Z,52.80
2019-03-22T15:02:47.418Z,52.50
2019-03-22T15:05:14.261Z,52.60
2019-03-22T15:07:41.053Z,52.80
2019-03-22T15:10:09.792Z,53.60
2019-03-22T15:12:36.625Z,53.40
2019-03-22T15:15:10.829Z,52.50
2019-03-22T15:17:39.472Z,52.20
2019-03-22T15:20:25.232Z,52.90
2019-03-22T15:22:53.872Z,53.60
2019-03-22T15:25:28.431Z,53.40
2019-03-22T15:28:09.249Z,54.10
2019-03-22T15:30:49.993Z,53.20
2019-03-22T15:33:21.389Z,53.90
2019-03-22T15:36:02.292Z,54.80
2019-03-22T15:38:48.459Z,54.80
2019-03-22T15:41:16.001Z,54.50
2019-03-22T15:43:42.837Z,54.80
2019-03-22T15:46:09.621Z,54.40
2019-03-22T15:48:36.469Z,54.80
2019-03-22T15:51:03.250Z,55.20
2019-03-22T15:53:30.032Z,56.20
2019-03-22T15:55:56.871Z,56.50
2019-03-22T15:58:23.856Z,56.60
2019-03-22T16:00:50.694Z,56.50
2019-03-22T16:03:17.482Z,57.00
2019-03-22T16:05:44.321Z,57.40
2019-03-22T16:08:11.105Z,57.90
2019-03-22T16:10:37.945Z,58.20
2019-03-22T16:13:04.776Z,57.60
2019-03-22T16:15:31.616Z,58.20
2019-03-22T16:17:58.456Z,58.10
2019-03-22T16:20:25.237Z,58.60
2019-03-22T16:22:52.072Z,59.10
2019-03-22T16:25:18.908Z,59.70
2019-03-22T16:27:45.800Z,60.30
2019-03-22T16:30:14.184Z,60.80
2019-03-22T16:32:40.932Z,61.00
2019-03-22T16:35:08.326Z,62.10
2019-03-22T16:37:35.156Z,63.30
2019-03-22T16:40:02.100Z,63.10
2019-03-22T16:42:28.940Z,62.40
2019-03-22T16:44:55.773Z,62.50
2019-03-22T16:47:22.637Z,63.10
2019-03-22T16:49:49.460Z,63.70
2019-03-22T16:52:16.248Z,63.20
2019-03-22T16:54:43.029Z,63.90
2019-03-22T16:57:10.509Z,64.00
2019-03-22T16:59:37.512Z,64.30
2019-03-22T17:02:04.340Z,64.20
2019-03-22T17:04:31.133Z,64.00
2019-03-22T17:06:57.972Z,64.30
2019-03-22T17:09:24.753Z,64.80
2019-03-22T17:11:51.830Z,65.20
2019-03-22T17:14:18.717Z,65.40
2019-03-22T17:16:45.560Z,65.70
2019-03-22T17:19:12.593Z,66.80
2019-03-22T17:21:39.399Z,67.50
2019-03-22T17:24:06.249Z,67.80
2019-03-22T17:26:33.043Z,68.20
2019-03-22T17:28:59.837Z,69.50
2019-03-22T17:31:26.690Z,70.40
2019-03-22T17:33:53.460Z,70.70
2019-03-22T17:36:20.313Z,71.40
2019-03-22T17:38:47.157Z,71.90
2019-03-22T17:41:13.987Z,71.90
2019-03-22T17:43:40.835Z,72.40
2019-03-22T17:46:07.657Z,72.50
2019-03-22T17:48:34.481Z,72.50
2019-03-22T17:51:01.309Z,72.60
2019-03-22T17:53:28.171Z,72.20
2019-03-22T17:55:54.958Z,72.50
2019-03-22T17:58:21.751Z,72.70
2019-03-22T18:00:48.602Z,72.80
2019-03-22T18:03:15.412Z,73.20
2019-03-22T18:05:42.258Z,73.10
2019-03-22T18:08:09.453Z,73.00
2019-03-22T18:10:36.297Z,73.30
2019-03-22T18:13:03.181Z,73.70
2019-03-22T18:15:30.027Z,73.80
2019-03-22T18:17:56.872Z,74.50
2019-03-22T18:20:23.661Z,74.80
2019-03-22T18:22:50.549Z,75.00
2019-03-22T18:25:17.345Z,75.50
2019-03-22T18:27:44.208Z,75.50
2019-03-22T18:30:12.484Z,76.00
2019-03-22T18:32:39.278Z,75.80
2019-03-22T18:35:06.725Z,75.70
2019-03-22T18:37:33.569Z,76.30
2019-03-22T18:40:00.357Z,76.10
2019-03-22T18:42:27.219Z,76.10
2019-03-22T18:44:54.005Z,76.10
2019-03-22T18:47:21.147Z,76.10
2019-03-22T18:49:47.979Z,76.10
2019-03-22T18:52:14.811Z,76.20
2019-03-22T18:54:41.584Z,76.40
2019-03-22T18:57:08.430Z,77.00
2019-03-22T18:59:35.214Z,77.70
2019-03-22T19:02:02.086Z,78.00
2019-03-22T19:04:28.937Z,78.30
2019-03-22T19:06:55.858Z,78.60
2019-03-22T19:09:22.751Z,79.00
2019-03-22T19:11:49.667Z,79.50
2019-03-22T19:14:16.481Z,80.30
2019-03-22T19:16:43.269Z,81.00
2019-03-22T19:19:10.108Z,81.20
2019-03-22T19:21:36.950Z,81.60
2019-03-22T19:24:03.807Z,82.00
2019-03-22T19:26:30.700Z,81.60
2019-03-22T19:28:57.562Z,81.70
2019-03-22T19:31:24.349Z,82.30
2019-03-22T19:33:51.304Z,82.10
2019-03-22T19:36:18.616Z,82.90
2019-03-22T19:38:45.544Z,82.70
2019-03-22T19:41:12.504Z,82.60
2019-03-22T19:43:39.448Z,82.80
2019-03-22T19:46:06.347Z,82.60
2019-03-22T19:48:33.253Z,82.40
2019-03-22T19:51:00.206Z,82.10
2019-03-22T19:53:27.139Z,82.10
2019-03-22T19:55:54.148Z,82.50
2019-03-22T19:58:21.298Z,82.20
2019-03-22T20:00:48.288Z,82.80
2019-03-22T20:03:15.182Z,82.80
2019-03-22T20:05:42.058Z,82.90
2019-03-22T20:08:11.355Z,82.70
2019-03-22T20:10:37.687Z,82.90
2019-03-22T20:13:04.647Z,82.90
2019-03-22T20:15:31.967Z,82.90
2019-03-22T20:17:58.855Z,83.10
2019-03-22T20:20:25.774Z,83.70
2019-03-22T20:22:52.640Z,84.50
2019-03-22T20:25:19.505Z,85.30
2019-03-22T20:27:46.345Z,85.50
2019-03-22T20:30:16.565Z,85.30
2019-03-22T20:32:43.391Z,85.90
2019-03-22T20:35:16.440Z,86.00
2019-03-22T20:37:40.312Z,86.40
2019-03-22T20:40:12.423Z,86.60
2019-03-22T20:42:39.284Z,86.50
2019-03-22T20:45:07.215Z,86.80
2019-03-22T20:47:34.033Z,87.10
2019-03-22T20:50:00.819Z,87.00
2019-03-22T20:52:27.669Z,87.20
2019-03-22T20:54:54.496Z,87.50
2019-03-22T20:57:21.294Z,87.30
2019-03-22T20:59:48.133Z,86.90
2019-03-22T21:02:15.002Z,86.30
2019-03-22T21:04:41.829Z,86.40
2019-03-22T21:07:08.612Z,86.10
2019-03-22T21:09:35.470Z,85.50
2019-03-22T21:12:03.930Z,85.90
2019-03-22T21:14:30.953Z,86.20
2019-03-22T21:16:57.779Z,86.40
2019-03-22T21:19:24.602Z,86.40
2019-03-22T21:21:51.437Z,86.20
2019-03-22T21:24:18.236Z,86.20
2019-03-22T21:26:45.078Z,86.50
2019-03-22T21:29:11.926Z,87.20
2019-03-22T21:31:38.866Z,87.30
2019-03-22T21:34:05.760Z,87.40
2019-03-22T21:36:32.619Z,87.70
2019-03-22T21:38:59.416Z,87.80
2019-03-22T21:41:26.263Z,87.90
2019-03-22T21:43:53.247Z,88.10
2019-03-22T21:46:20.024Z,88.30
2019-03-22T21:48:46.868Z,88.20
2019-03-22T21:51:13.654Z,88.00
2019-03-22T21:53:40.729Z,88.00
2019-03-22T21:56:07.508Z,88.00
2019-03-22T21:58:34.348Z,88.20
2019-03-22T22:01:01.149Z,88.30
2019-03-22T22:03:27.978Z,88.20
2019-03-22T22:05:54.761Z,87.80
2019-03-22T22:08:21.592Z,87.60
2019-03-22T22:10:58.984Z,87.50
2019-03-22T22:13:17.037Z,87.50
2019-03-22T22:15:43.824Z,88.20
2019-03-22T22:18:10.655Z,88.60
2019-03-22T22:20:37.450Z,89.20
2019-03-22T22:23:04.280Z,88.90
2019-03-22T22:25:31.071Z,88.50
2019-03-22T22:27:57.914Z,88.00
2019-03-22T22:30:25.300Z,88.10
2019-03-22T22:32:52.160Z,88.60
2019-03-22T22:35:18.944Z,88.40
2019-03-22T22:37:45.738Z,88.30
2019-03-22T22:40:12.695Z,89.30
2019-03-22T22:42:39.480Z,89.40
2019-03-22T22:45:07.951Z,89.40
2019-03-22T22:47:34.738Z,89.20
2019-03-22T22:50:01.727Z,89.30
2019-03-22T22:52:28.576Z,89.10
2019-03-22T22:54:55.359Z,89.00
2019-03-22T22:57:22.156Z,89.10
2019-03-22T22:59:49.004Z,89.10
2019-03-22T23:02:15.792Z,89.50
2019-03-22T23:04:42.628Z,89.50
2019-03-22T23:07:09.408Z,89.90
2019-03-22T23:09:36.204Z,90.50
2019-03-22T23:12:03.032Z,91.00
2019-03-22T23:14:29.868Z,90.60
2019-03-22T23:16:56.713Z,90.50
2019-03-22T23:19:23.549Z,89.90
2019-03-22T23:21:50.337Z,89.80
2019-03-22T23:24:17.167Z,89.80
2019-03-22T23:26:43.952Z,90.20
2019-03-22T23:29:10.844Z,90.50
2019-03-22T23:31:37.639Z,90.40
2019-03-22T23:34:04.431Z,89.90
2019-03-22T23:36:31.325Z,89.80
2019-03-22T23:38:58.117Z,89.90
2019-03-22T23:41:25.368Z,90.10
2019-03-22T23:43:52.204Z,90.10
2019-03-22T23:46:19.108Z,89.90
2019-03-22T23:48:45.880Z,89.70
2019-03-22T23:51:12.721Z,89.40
2019-03-22T23:53:39.510Z,89.30
2019-03-22T23:56:06.354Z,88.90
2019-03-22T23:58:33.185Z,88.70
